Time;durP1;ratioP1;P1;durP2;ratioP2;P2;SDS_P1;SDS_P2;PMS_P1;PMS_P2;Temp;Humidity;BMP_temperature;BMP_pressure;BME280_temperature;BME280_humidity;BME280_pressure;Samples;Min_cycle;Max_cycle;Signal;HPM_P1;HPM_P2
2023/05/18 00:00:09;;;;;;;4.30;1.10;;;18.10;99.90;;;;;;5071932;28;20207;-69
2023/05/18 00:02:37;;;;;;;3.97;0.73;;;18.00;99.90;;;;;;5071838;28;20222;-68
2023/05/18 00:05:06;;;;;;;4.07;1.23;;;18.00;99.90;;;;;;5072173;28;20188;-69
2023/05/18 00:07:33;;;;;;;2.47;1.00;;;17.90;99.90;;;;;;5069959;28;20872;-69
2023/05/18 00:10:01;;;;;;;3.33;0.90;;;17.90;99.90;;;;;;5071228;28;20518;-69
2023/05/18 00:12:28;;;;;;;3.63;1.00;;;18.00;99.90;;;;;;5071513;28;20183;-69
2023/05/18 00:14:56;;;;;;;3.43;1.00;;;18.40;99.90;;;;;;5071777;28;20750;-68
2023/05/18 00:17:24;;;;;;;2.07;0.90;;;18.30;99.90;;;;;;5070849;28;20181;-68
2023/05/18 00:19:52;;;;;;;8.00;1.00;;;18.00;99.90;;;;;;5071623;28;20205;-69
2023/05/18 00:22:19;;;;;;;1.67;0.73;;;17.90;99.90;;;;;;5071833;28;20650;-68
2023/05/18 00:24:48;;;;;;;2.83;0.93;;;18.30;99.90;;;;;;5071191;28;20172;-69
2023/05/18 00:27:16;;;;;;;7.50;1.10;;;18.60;99.90;;;;;;5071599;28;20279;-69
2023/05/18 00:29:43;;;;;;;2.83;0.93;;;18.90;99.90;;;;;;5071603;28;20191;-69
2023/05/18 00:32:11;;;;;;;4.60;1.10;;;19.00;99.90;;;;;;5071279;28;20233;-69
2023/05/18 00:34:39;;;;;;;2.23;0.80;;;19.30;99.90;;;;;;5071690;28;20207;-69
2023/05/18 00:37:07;;;;;;;2.33;0.93;;;19.30;99.90;;;;;;5070710;28;20221;-68
2023/05/18 00:39:34;;;;;;;1.70;0.80;;;19.50;99.90;;;;;;5070850;28;20524;-69
2023/05/18 00:42:02;;;;;;;4.83;1.00;;;19.80;99.90;;;;;;5071346;28;20178;-69
2023/05/18 00:44:30;;;;;;;2.10;0.77;;;19.90;99.90;;;;;;5071646;28;20222;-69
2023/05/18 00:46:59;;;;;;;3.10;1.00;;;19.60;99.90;;;;;;5070773;28;20215;-70
2023/05/18 00:49:27;;;;;;;2.57;0.80;;;19.50;99.90;;;;;;5070330;28;20180;-71
2023/05/18 00:51:55;;;;;;;2.20;0.83;;;19.50;99.90;;;;;;5073322;28;20186;-71
2023/05/18 00:54:24;;;;;;;1.90;0.70;;;19.70;99.90;;;;;;5075011;28;20617;-71
2023/05/18 00:56:52;;;;;;;3.90;1.10;;;19.80;99.90;;;;;;5075428;28;20183;-69
2023/05/18 00:59:20;;;;;;;2.23;0.83;;;19.80;99.90;;;;;;5075505;28;20177;-70
2023/05/18 01:01:48;;;;;;;3.27;1.07;;;20.00;99.90;;;;;;5074915;28;20180;-69
2023/05/18 01:04:16;;;;;;;2.67;1.03;;;19.50;99.90;;;;;;5074039;28;20179;-70
2023/05/18 01:06:45;;;;;;;4.03;1.27;;;19.60;99.90;;;;;;5073928;28;20209;-70
2023/05/18 01:09:13;;;;;;;3.67;0.87;;;19.50;99.90;;;;;;5074845;28;20251;-68
2023/05/18 01:12:20;;;;;;;2.00;0.90;;;19.40;99.90;;;;;;5074814;28;20180;-70
2023/05/18 01:14:48;;;;;;;1.53;0.87;;;19.70;99.90;;;;;;5074579;28;20225;-68
2023/05/18 01:17:26;;;;;;;3.17;0.97;;;19.90;99.90;;;;;;5074959;28;20172;-70
2023/05/18 01:20:15;;;;;;;4.50;0.90;;;20.20;99.90;;;;;;5075203;28;20199;-69
2023/05/18 01:22:52;;;;;;;2.20;1.00;;;20.40;99.90;;;;;;5074143;28;20176;-70
2023/05/18 01:25:33;;;;;;;4.20;1.07;;;20.30;99.90;;;;;;5074860;28;20172;-69
2023/05/18 01:28:07;;;;;;;1.53;0.67;;;20.40;99.90;;;;;;5074856;28;20187;-69
2023/05/18 01:30:40;;;;;;;3.40;1.20;;;20.70;99.90;;;;;;5074119;28;20187;-69
2023/05/18 01:33:09;;;;;;;3.43;1.17;;;21.40;99.90;;;;;;5074481;28;20188;-69
2023/05/18 01:35:40;;;;;;;3.97;0.93;;;21.60;99.90;;;;;;5074523;28;20298;-70
2023/05/18 01:38:08;;;;;;;4.70;0.93;;;22.40;99.90;;;;;;5074352;28;20223;-68
2023/05/18 01:41:10;;;;;;;1.63;0.70;;;22.40;99.90;;;;;;5074823;28;20528;-70
2023/05/18 01:43:43;;;;;;;1.77;0.80;;;22.20;99.90;;;;;;5058220;28;20206;-71
2023/05/18 01:46:26;;;;;;;2.83;0.80;;;22.10;99.90;;;;;;5073872;28;20195;-70
2023/05/18 01:48:58;;;;;;;5.53;1.10;;;21.90;99.90;;;;;;5074168;28;20195;-70
2023/05/18 01:51:32;;;;;;;3.77;1.20;;;22.10;99.90;;;;;;5074358;28;20172;-67
2023/05/18 01:54:09;;;;;;;2.67;1.00;;;22.10;99.90;;;;;;5074398;28;20203;-69
2023/05/18 01:56:38;;;;;;;2.50;0.90;;;22.30;99.90;;;;;;5074001;28;20186;-69
2023/05/18 01:59:07;;;;;;;4.13;1.00;;;22.40;99.90;;;;;;5072766;28;20187;-70
2023/05/18 02:01:34;;;;;;;3.17;0.70;;;22.80;99.90;;;;;;5074092;28;20185;-71
2023/05/18 02:04:06;;;;;;;2.57;1.00;;;22.80;99.90;;;;;;5072750;28;20183;-70
2023/05/18 02:06:35;;;;;;;1.73;0.97;;;21.90;99.90;;;;;;5073889;28;20275;-70
2023/05/18 02:09:04;;;;;;;2.27;0.60;;;21.20;99.90;;;;;;5074110;28;20641;-71
2023/05/18 02:11:32;;;;;;;4.30;0.90;;;21.60;99.90;;;;;;5073318;28;20199;-71
2023/05/18 02:14:00;;;;;;;4.73;1.27;;;22.30;99.90;;;;;;5073600;28;20706;-71
2023/05/18 02:16:28;;;;;;;1.00;0.90;;;22.00;99.90;;;;;;5073500;28;20229;-71
2023/05/18 02:18:55;;;;;;;2.13;0.63;;;21.40;99.90;;;;;;5073882;28;20240;-71
2023/05/18 02:21:24;;;;;;;3.23;0.90;;;21.30;99.90;;;;;;5073163;28;20610;-71
2023/05/18 02:23:52;;;;;;;2.67;0.90;;;21.90;99.90;;;;;;5073714;28;20183;-70
2023/05/18 02:26:20;;;;;;;2.87;0.90;;;22.90;99.90;;;;;;5073914;28;20183;-70
2023/05/18 02:28:48;;;;;;;5.37;0.83;;;23.10;99.90;;;;;;5073141;28;20667;-70
2023/05/18 02:31:15;;;;;;;3.90;1.00;;;22.20;99.90;;;;;;5073768;28;20225;-72
2023/05/18 02:33:43;;;;;;;3.47;1.27;;;21.60;99.90;;;;;;5073074;28;20551;-71
2023/05/18 02:36:12;;;;;;;5.97;0.90;;;20.60;99.90;;;;;;5073066;28;20230;-71
2023/05/18 02:38:42;;;;;;;2.50;1.10;;;21.20;99.90;;;;;;5072359;28;20176;-71
2023/05/18 02:41:10;;;;;;;2.07;0.67;;;21.80;99.90;;;;;;5073546;28;20183;-71
2023/05/18 02:43:38;;;;;;;3.03;0.60;;;22.60;99.90;;;;;;5072665;28;20187;-71
2023/05/18 02:46:06;;;;;;;2.47;0.67;;;23.20;99.90;;;;;;5073404;28;20179;-70
2023/05/18 02:48:34;;;;;;;3.23;0.83;;;23.10;99.90;;;;;;5073294;28;20195;-71
2023/05/18 02:51:02;;;;;;;3.40;0.90;;;22.90;99.90;;;;;;5072907;28;20880;-70
2023/05/18 02:53:30;;;;;;;2.83;0.80;;;22.70;99.90;;;;;;5072712;28;20656;-71
2023/05/18 02:55:57;;;;;;;2.57;0.67;;;22.00;99.90;;;;;;5073103;28;20638;-71
2023/05/18 02:58:25;;;;;;;1.00;0.50;;;21.30;99.90;;;;;;5072852;28;20176;-71
2023/05/18 03:00:58;;;;;;;6.17;0.70;;;21.10;99.90;;;;;;5073022;28;20180;-71
2023/05/18 03:03:26;;;;;;;0.90;0.50;;;21.60;99.90;;;;;;5073208;28;20233;-71
2023/05/18 03:05:54;;;;;;;2.77;0.80;;;22.80;99.90;;;;;;5072297;28;20180;-70
2023/05/18 03:08:22;;;;;;;3.70;1.10;;;23.40;99.90;;;;;;5073111;28;20212;-71
2023/05/18 03:10:50;;;;;;;2.40;0.77;;;22.90;99.90;;;;;;5071278;28;20187;-70
2023/05/18 03:13:18;;;;;;;3.00;0.70;;;21.70;99.90;;;;;;5072131;28;20275;-70
2023/05/18 03:15:45;;;;;;;2.10;0.50;;;20.90;99.90;;;;;;5072199;28;20211;-70
2023/05/18 03:18:13;;;;;;;3.07;0.67;;;20.70;99.90;;;;;;5072711;28;20184;-72
2023/05/18 03:20:41;;;;;;;5.40;0.70;;;20.50;99.90;;;;;;5072105;28;20180;-71
2023/05/18 03:23:09;;;;;;;1.53;0.50;;;20.10;99.90;;;;;;5072626;28;20182;-70
2023/05/18 03:25:37;;;;;;;1.73;0.87;;;19.60;99.90;;;;;;5072425;28;20174;-70
2023/05/18 03:28:05;;;;;;;1.37;0.60;;;19.30;99.90;;;;;;5071930;28;20197;-71
2023/05/18 03:30:35;;;;;;;2.50;1.40;;;19.20;99.90;;;;;;5071667;28;20185;-71
2023/05/18 03:33:03;;;;;;;3.83;1.10;;;19.40;99.90;;;;;;5071197;28;20186;-71
2023/05/18 03:35:32;;;;;;;2.03;0.90;;;19.60;99.90;;;;;;5071704;28;20219;-69
2023/05/18 03:38:00;;;;;;;2.83;0.90;;;19.60;99.90;;;;;;5072197;28;20224;-72
2023/05/18 03:40:28;;;;;;;1.47;0.87;;;20.20;99.90;;;;;;5072391;28;20181;-71
2023/05/18 03:42:56;;;;;;;3.97;1.10;;;20.70;99.90;;;;;;5071996;28;20841;-72
2023/05/18 03:45:24;;;;;;;3.00;0.80;;;20.40;99.90;;;;;;5071991;28;20554;-72
2023/05/18 03:47:52;;;;;;;2.17;0.77;;;20.00;99.90;;;;;;5072329;28;20242;-71
2023/05/18 03:50:20;;;;;;;2.63;1.03;;;20.10;99.90;;;;;;5070467;28;20202;-72
2023/05/18 03:52:47;;;;;;;7.07;1.20;;;20.10;99.90;;;;;;5071625;28;20187;-71
2023/05/18 03:55:16;;;;;;;4.60;1.10;;;20.50;99.90;;;;;;5072028;28;20204;-71
2023/05/18 03:57:43;;;;;;;5.53;1.00;;;20.50;99.90;;;;;;5071465;28;20195;-70
2023/05/18 04:00:12;;;;;;;5.17;1.03;;;20.10;99.90;;;;;;5072008;28;20229;-71
2023/05/18 04:02:41;;;;;;;2.63;0.90;;;19.60;99.90;;;;;;5071968;28;20543;-71
2023/05/18 04:05:09;;;;;;;5.97;1.53;;;19.30;99.90;;;;;;5071693;28;20187;-70
2023/05/18 04:07:42;;;;;;;4.73;0.90;;;18.80;99.90;;;;;;5071559;28;20645;-71
2023/05/18 04:10:12;;;;;;;6.03;1.10;;;18.80;99.90;;;;;;5072004;28;20737;-71
2023/05/18 04:12:40;;;;;;;5.90;1.20;;;18.70;99.90;;;;;;5071320;28;20219;-72
2023/05/18 04:15:09;;;;;;;2.97;1.10;;;18.60;99.90;;;;;;5071938;28;20222;-71
2023/05/18 04:17:38;;;;;;;3.10;0.90;;;18.50;99.90;;;;;;5071944;28;20191;-72
2023/05/18 04:20:11;;;;;;;6.60;0.90;;;18.50;99.90;;;;;;5071450;28;20183;-71
2023/05/18 04:22:47;;;;;;;5.63;1.60;;;18.60;99.90;;;;;;5070562;28;20557;-72
2023/05/18 04:25:19;;;;;;;5.13;1.20;;;18.50;99.90;;;;;;5071567;28;20301;-71
2023/05/18 04:27:46;;;;;;;4.40;1.10;;;18.50;99.90;;;;;;5070934;28;20178;-70
2023/05/18 04:30:17;;;;;;;8.27;1.67;;;18.60;99.90;;;;;;5071530;28;20172;-70
2023/05/18 04:32:45;;;;;;;4.77;1.30;;;18.80;99.90;;;;;;5051479;28;20401;-70
2023/05/18 04:35:13;;;;;;;3.70;1.00;;;19.40;99.90;;;;;;5051219;28;20227;-70
2023/05/18 04:37:41;;;;;;;4.97;1.20;;;20.20;99.90;;;;;;5060742;28;20227;-70
2023/05/18 04:40:12;;;;;;;4.27;1.20;;;20.60;99.90;;;;;;5071572;28;20183;-69
2023/05/18 04:42:47;;;;;;;10.23;1.00;;;20.40;99.90;;;;;;5070844;28;20266;-70
2023/05/18 04:45:21;;;;;;;2.47;1.00;;;20.30;99.90;;;;;;5071480;28;20548;-70
2023/05/18 04:47:52;;;;;;;6.30;1.30;;;19.70;99.90;;;;;;5071386;28;20182;-71
2023/05/18 04:50:20;;;;;;;4.63;1.40;;;19.40;99.90;;;;;;5070889;28;20196;-70
2023/05/18 04:52:49;;;;;;;4.53;1.17;;;19.10;99.90;;;;;;5070896;28;20270;-70
2023/05/18 04:55:26;;;;;;;3.57;1.30;;;18.70;99.90;;;;;;5071329;28;20254;-70
2023/05/18 04:57:55;;;;;;;4.03;1.40;;;18.40;99.90;;;;;;5070800;28;20538;-70
2023/05/18 05:00:27;;;;;;;4.87;1.23;;;18.20;99.90;;;;;;5070819;28;20642;-70
2023/05/18 05:02:56;;;;;;;2.07;1.20;;;18.00;99.90;;;;;;5069955;28;20725;-71
2023/05/18 05:05:25;;;;;;;5.20;1.33;;;17.70;99.90;;;;;;5070380;28;20176;-71
2023/05/18 05:07:54;;;;;;;2.37;1.20;;;17.60;99.90;;;;;;5069478;28;20251;-72
2023/05/18 05:10:22;;;;;;;2.83;1.20;;;17.60;99.90;;;;;;5071199;28;20917;-71
2023/05/18 05:12:51;;;;;;;4.17;1.03;;;17.60;99.90;;;;;;5070685;28;20674;-72
2023/05/18 05:15:19;;;;;;;7.13;1.47;;;17.90;99.90;;;;;;5069738;28;20211;-71
2023/05/18 05:17:50;;;;;;;9.20;1.30;;;17.90;99.90;;;;;;5071097;28;20173;-71
2023/05/18 05:20:18;;;;;;;6.03;1.43;;;17.70;99.90;;;;;;5070493;28;20219;-72
2023/05/18 05:22:46;;;;;;;1.80;0.80;;;17.60;99.90;;;;;;5071042;28;20204;-71
2023/05/18 05:25:13;;;;;;;4.30;1.27;;;17.40;99.90;;;;;;5070705;28;20183;-69
2023/05/18 05:27:41;;;;;;;4.57;1.10;;;17.30;99.90;;;;;;5070287;28;20583;-70
2023/05/18 05:30:09;;;;;;;3.57;1.00;;;17.20;99.90;;;;;;5070781;28;20174;-71
2023/05/18 05:32:37;;;;;;;6.40;1.10;;;17.10;99.90;;;;;;5070653;28;20169;-71
2023/05/18 05:35:06;;;;;;;5.30;1.33;;;17.20;99.90;;;;;;5070369;28;20248;-70
2023/05/18 05:37:33;;;;;;;4.90;1.47;;;17.20;99.90;;;;;;5070239;28;20669;-72
2023/05/18 05:40:02;;;;;;;2.30;1.00;;;17.20;99.90;;;;;;5072726;28;20191;-71
2023/05/18 05:42:30;;;;;;;6.30;2.03;;;17.10;99.90;;;;;;5073705;28;20183;-70
2023/05/18 05:44:57;;;;;;;3.97;1.40;;;17.10;99.90;;;;;;5074159;28;20219;-71
2023/05/18 05:47:25;;;;;;;4.67;1.67;;;17.10;99.90;;;;;;5072832;28;20176;-70
2023/05/18 05:49:54;;;;;;;6.23;1.57;;;17.00;99.90;;;;;;5072453;28;20664;-71
2023/05/18 05:52:22;;;;;;;4.23;1.20;;;17.10;99.90;;;;;;5074258;28;20180;-70
2023/05/18 05:54:49;;;;;;;6.77;1.40;;;17.10;99.90;;;;;;5073956;28;20219;-68
2023/05/18 05:57:17;;;;;;;2.43;1.10;;;16.90;99.90;;;;;;5073503;28;22076;-71
2023/05/18 05:59:45;;;;;;;8.87;1.43;;;16.90;99.90;;;;;;5073931;28;20362;-71
2023/05/18 06:02:13;;;;;;;2.10;1.03;;;16.90;99.90;;;;;;5073930;28;20207;-71
2023/05/18 06:04:40;;;;;;;2.73;1.17;;;16.90;99.90;;;;;;5073523;28;20588;-71
2023/05/18 06:07:08;;;;;;;4.57;1.23;;;16.90;99.90;;;;;;5073515;28;20177;-71
2023/05/18 06:09:36;;;;;;;7.33;1.20;;;16.90;99.90;;;;;;5072640;28;20248;-72
2023/05/18 06:12:05;;;;;;;3.77;1.20;;;16.90;99.90;;;;;;5073535;28;20171;-71
2023/05/18 06:14:32;;;;;;;3.87;1.20;;;16.90;99.90;;;;;;5073370;28;20263;-71
2023/05/18 06:17:00;;;;;;;6.77;1.40;;;16.80;99.90;;;;;;5073457;28;20187;-71
2023/05/18 06:19:28;;;;;;;6.27;1.47;;;16.80;99.90;;;;;;5073284;28;20171;-70
2023/05/18 06:21:56;;;;;;;4.00;1.20;;;16.70;99.90;;;;;;5073489;28;20182;-72
2023/05/18 06:24:24;;;;;;;3.93;1.10;;;16.60;99.90;;;;;;5073668;28;20187;-70
2023/05/18 06:26:51;;;;;;;5.30;1.20;;;16.60;99.90;;;;;;5073339;28;20253;-70
2023/05/18 06:29:20;;;;;;;5.83;1.30;;;16.40;99.90;;;;;;5073483;28;20199;-70
2023/05/18 06:31:48;;;;;;;2.67;1.20;;;16.40;99.90;;;;;;5073603;28;20218;-71
2023/05/18 06:34:16;;;;;;;5.00;1.63;;;16.30;99.90;;;;;;5073012;28;20674;-70
2023/05/18 06:36:43;;;;;;;6.70;1.00;;;16.10;99.90;;;;;;5072134;28;20328;-72
2023/05/18 06:39:11;;;;;;;6.43;1.50;;;16.10;99.90;;;;;;5072906;28;20531;-71
2023/05/18 06:41:39;;;;;;;5.00;1.50;;;16.00;99.90;;;;;;5072684;28;20180;-70
2023/05/18 06:44:07;;;;;;;2.93;1.40;;;15.90;99.90;;;;;;5073376;28;20274;-72
2023/05/18 06:46:35;;;;;;;4.13;1.30;;;15.70;99.90;;;;;;5073170;28;20184;-70
2023/05/18 06:52:24;;;;;;;3.87;1.20;;;15.30;99.90;;;;;;5072758;28;20190;-70
2023/05/18 06:54:52;;;;;;;5.53;1.30;;;15.10;99.90;;;;;;5072747;28;20220;-69
2023/05/18 06:57:20;;;;;;;3.47;1.10;;;14.90;99.90;;;;;;5073039;28;20193;-70
2023/05/18 06:59:52;;;;;;;5.10;1.27;;;14.80;99.90;;;;;;5073008;28;20176;-71
2023/05/18 07:02:22;;;;;;;5.03;1.40;;;14.70;99.90;;;;;;5072639;28;20175;-70
2023/05/18 07:04:50;;;;;;;5.37;1.43;;;14.60;99.90;;;;;;5073056;28;20679;-71
2023/05/18 07:07:19;;;;;;;5.53;1.63;;;14.50;99.90;;;;;;5072761;28;20182;-71
2023/05/18 07:09:48;;;;;;;5.37;1.50;;;14.40;99.90;;;;;;5072474;28;20261;-69
2023/05/18 07:12:16;;;;;;;2.97;1.30;;;14.40;99.90;;;;;;5072593;28;20183;-71
2023/05/18 07:14:44;;;;;;;4.77;1.50;;;14.30;99.90;;;;;;5072755;28;20288;-71
2023/05/18 07:17:11;;;;;;;7.17;2.50;;;14.30;99.90;;;;;;5071993;28;20180;-70
2023/05/18 07:19:39;;;;;;;5.83;3.50;;;14.20;99.90;;;;;;5072789;28;20168;-70
2023/05/18 07:22:07;;;;;;;7.20;2.93;;;14.10;99.90;;;;;;5072405;28;20180;-69
2023/05/18 07:24:35;;;;;;;4.63;2.60;;;14.10;99.90;;;;;;5072193;28;20287;-70
2023/05/18 07:27:03;;;;;;;4.10;2.40;;;14.00;99.90;;;;;;5071110;28;20708;-70
2023/05/18 07:29:31;;;;;;;5.43;1.70;;;14.00;99.90;;;;;;5072332;28;20187;-70
2023/05/18 07:31:59;;;;;;;7.83;2.47;;;14.00;99.90;;;;;;5071752;28;20180;-70
2023/05/18 07:34:27;;;;;;;10.40;2.17;;;14.00;99.90;;;;;;5071630;28;20209;-70
2023/05/18 07:36:56;;;;;;;7.27;1.97;;;13.90;99.90;;;;;;5072499;28;20628;-70
2023/05/18 07:39:27;;;;;;;2.80;1.50;;;13.90;99.90;;;;;;5072891;28;20271;-69
2023/05/18 07:41:56;;;;;;;6.03;2.23;;;13.80;99.90;;;;;;5073159;28;20167;-70
2023/05/18 07:44:23;;;;;;;3.47;1.53;;;13.80;99.90;;;;;;5073865;28;20203;-70
2023/05/18 07:46:52;;;;;;;3.43;1.80;;;13.70;99.90;;;;;;5073024;28;20174;-69
2023/05/18 07:49:22;;;;;;;4.67;1.90;;;13.60;99.90;;;;;;5073143;28;20191;-70
2023/05/18 07:51:50;;;;;;;9.03;1.70;;;13.60;99.90;;;;;;5073326;28;20180;-69
2023/05/18 07:54:18;;;;;;;5.80;2.20;;;13.60;99.90;;;;;;5073188;28;20261;-69
2023/05/18 07:56:46;;;;;;;7.67;1.70;;;13.70;99.90;;;;;;5071310;28;20191;-66
2023/05/18 07:59:14;;;;;;;4.60;2.10;;;13.60;99.90;;;;;;5072655;28;20183;-69
2023/05/18 08:01:43;;;;;;;5.47;2.03;;;13.70;99.90;;;;;;5070184;28;20180;-68
2023/05/18 08:04:11;;;;;;;5.20;1.80;;;13.70;99.90;;;;;;5068091;28;20186;-68
2023/05/18 08:06:39;;;;;;;7.33;1.90;;;13.70;99.90;;;;;;5073026;28;20246;-69
2023/05/18 08:09:07;;;;;;;4.73;2.00;;;13.70;99.90;;;;;;5073256;28;20188;-68
2023/05/18 08:11:35;;;;;;;3.40;1.80;;;13.70;99.90;;;;;;5073046;28;20226;-68
2023/05/18 08:14:04;;;;;;;6.43;2.17;;;13.70;99.90;;;;;;5072809;28;20203;-68
2023/05/18 08:16:35;;;;;;;4.10;2.10;;;13.70;99.90;;;;;;5073186;28;20180;-68
2023/05/18 08:19:04;;;;;;;7.13;1.60;;;13.70;99.90;;;;;;5073608;28;20175;-68
2023/05/18 08:21:32;;;;;;;3.80;1.90;;;13.70;99.90;;;;;;5073021;28;20348;-68
2023/05/18 08:24:00;;;;;;;4.53;1.60;;;13.70;99.90;;;;;;5072843;28;20787;-68
2023/05/18 08:26:27;;;;;;;6.40;1.60;;;13.70;99.90;;;;;;5072835;28;20179;-69
2023/05/18 08:28:55;;;;;;;2.70;1.33;;;13.60;99.90;;;;;;5072914;28;20183;-67
2023/05/18 08:31:23;;;;;;;7.27;2.33;;;13.50;99.90;;;;;;5072922;28;20517;-68
2023/05/18 08:33:51;;;;;;;5.60;1.70;;;13.40;99.90;;;;;;5072089;28;20198;-73
2023/05/18 08:36:18;;;;;;;2.73;1.67;;;13.40;99.90;;;;;;5072090;28;20231;-72
2023/05/18 08:38:46;;;;;;;2.33;1.30;;;13.40;99.90;;;;;;5071517;28;20206;-73
2023/05/18 08:41:24;;;;;;;4.40;1.40;;;13.30;99.90;;;;;;5073226;28;20186;-72
2023/05/18 08:44:01;;;;;;;3.23;1.23;;;13.20;99.90;;;;;;5072310;28;20183;-72
2023/05/18 08:46:41;;;;;;;2.93;1.47;;;13.00;99.90;;;;;;5072931;28;20229;-72
2023/05/18 08:49:10;;;;;;;4.00;1.97;;;12.90;99.90;;;;;;5072127;28;20269;-71
2023/05/18 08:51:39;;;;;;;3.77;1.47;;;12.80;99.90;;;;;;5073049;28;20214;-72
2023/05/18 08:54:08;;;;;;;2.53;1.60;;;12.70;99.90;;;;;;5072562;28;20268;-71
2023/05/18 08:56:38;;;;;;;2.70;1.77;;;12.60;99.90;;;;;;5072548;28;20189;-72
2023/05/18 08:59:07;;;;;;;7.73;2.20;;;12.50;99.90;;;;;;5072556;28;20191;-71
2023/05/18 09:01:35;;;;;;;2.53;2.00;;;12.40;99.90;;;;;;5071147;28;20521;-71
2023/05/18 09:04:04;;;;;;;4.07;1.90;;;12.30;99.90;;;;;;5072559;28;20182;-71
2023/05/18 09:06:34;;;;;;;8.20;4.97;;;12.30;99.90;;;;;;5072469;28;20242;-72
2023/05/18 09:09:05;;;;;;;11.73;5.33;;;12.30;99.90;;;;;;5072681;28;20179;-71
2023/05/18 09:11:34;;;;;;;7.30;3.87;;;12.30;99.90;;;;;;5072576;28;20662;-71
2023/05/18 09:14:02;;;;;;;8.10;3.77;;;12.30;99.90;;;;;;5076240;28;20205;-70
2023/05/18 09:16:30;;;;;;;4.80;3.60;;;12.20;99.90;;;;;;5076155;28;20183;-70
2023/05/18 09:18:58;;;;;;;6.73;3.23;;;12.10;99.90;;;;;;5076262;28;20182;-72
2023/05/18 09:21:25;;;;;;;6.73;3.60;;;12.00;99.90;;;;;;5076218;28;20625;-71
2023/05/18 09:23:53;;;;;;;7.07;3.30;;;11.90;99.90;;;;;;5076557;28;20182;-69
2023/05/18 09:26:21;;;;;;;9.63;3.30;;;11.90;99.90;;;;;;5074639;28;20182;-70
2023/05/18 09:28:53;;;;;;;3.30;2.43;;;11.80;99.90;;;;;;5076030;28;20198;-71
2023/05/18 09:31:23;;;;;;;4.93;2.80;;;11.80;99.90;;;;;;5076023;28;20182;-72
2023/05/18 09:33:51;;;;;;;7.10;3.17;;;11.80;99.90;;;;;;5075814;28;20169;-72
2023/05/18 09:36:25;;;;;;;6.77;3.07;;;11.80;99.90;;;;;;5074310;28;20585;-72
2023/05/18 09:38:53;;;;;;;6.60;2.87;;;11.80;99.90;;;;;;5074657;28;20554;-72
2023/05/18 09:41:25;;;;;;;10.30;3.20;;;11.80;99.90;;;;;;5075792;28;20203;-73
2023/05/18 09:43:53;;;;;;;5.70;3.07;;;11.70;99.90;;;;;;5075868;28;20167;-73
2023/05/18 09:46:21;;;;;;;4.73;2.53;;;11.70;99.90;;;;;;5074428;28;20525;-74
2023/05/18 09:48:54;;;;;;;3.47;2.40;;;11.60;99.90;;;;;;5074135;28;20216;-72
2023/05/18 09:51:24;;;;;;;5.37;2.50;;;11.50;99.90;;;;;;5075432;28;20186;-71
2023/05/18 09:53:56;;;;;;;7.47;3.20;;;11.40;99.90;;;;;;5074643;28;20186;-71
2023/05/18 09:56:25;;;;;;;4.77;2.40;;;11.40;99.90;;;;;;5054633;28;20182;-70
2023/05/18 09:58:54;;;;;;;5.20;2.70;;;11.40;99.90;;;;;;5055079;28;20183;-71
2023/05/18 10:01:21;;;;;;;4.57;2.40;;;11.40;99.90;;;;;;5054965;28;20189;-71
2023/05/18 10:03:49;;;;;;;4.73;1.70;;;11.50;99.90;;;;;;5054577;28;20192;-71
2023/05/18 10:06:18;;;;;;;8.87;2.20;;;11.60;99.90;;;;;;5054822;28;20186;-71
2023/05/18 10:08:46;;;;;;;4.30;1.30;;;11.70;99.90;;;;;;5054793;28;20662;-72
2023/05/18 10:11:18;;;;;;;3.63;1.57;;;11.70;99.90;;;;;;5054839;28;20543;-72
2023/05/18 10:13:46;;;;;;;7.13;1.87;;;11.70;99.90;;;;;;5054620;28;20270;-73
2023/05/18 10:16:15;;;;;;;3.93;1.93;;;11.80;99.90;;;;;;5054363;28;20180;-73
2023/05/18 10:18:44;;;;;;;3.57;1.90;;;11.80;99.90;;;;;;5054597;28;20170;-72
2023/05/18 10:21:17;;;;;;;3.30;1.87;;;11.90;99.90;;;;;;5054785;28;20766;-72
2023/05/18 10:23:47;;;;;;;2.40;1.60;;;12.00;99.90;;;;;;5053929;28;20546;-72
2023/05/18 10:26:27;;;;;;;3.77;1.70;;;12.00;99.90;;;;;;5054903;28;20175;-73
2023/05/18 10:28:58;;;;;;;5.27;2.00;;;12.00;99.90;;;;;;5054247;28;20174;-70
2023/05/18 10:31:27;;;;;;;6.53;1.70;;;12.00;99.90;;;;;;5054752;28;20644;-73
2023/05/18 10:33:55;;;;;;;4.30;2.23;;;12.00;99.90;;;;;;5054126;28;20171;-69
2023/05/18 10:36:31;;;;;;;7.93;2.00;;;11.80;99.90;;;;;;5054322;28;20255;-71
2023/05/18 10:39:02;;;;;;;5.73;1.73;;;11.60;99.90;;;;;;5054598;28;20250;-71
2023/05/18 10:41:32;;;;;;;4.17;2.27;;;11.60;99.90;;;;;;5053239;28;20554;-72
2023/05/18 10:44:02;;;;;;;3.57;1.80;;;11.40;99.90;;;;;;5054501;28;20269;-70
2023/05/18 10:46:31;;;;;;;2.00;1.67;;;11.20;99.90;;;;;;5054283;28;20645;-69
2023/05/18 10:49:00;;;;;;;3.87;1.97;;;11.10;99.90;;;;;;5053177;28;20214;-70
2023/05/18 10:51:30;;;;;;;2.13;1.67;;;11.00;99.90;;;;;;5054126;28;20655;-71
2023/05/18 10:54:10;;;;;;;2.27;1.60;;;10.90;99.90;;;;;;5053501;28;20183;-71
2023/05/18 10:56:38;;;;;;;3.83;1.90;;;10.90;99.90;;;;;;5053650;28;20173;-70
2023/05/18 10:59:07;;;;;;;4.47;1.90;;;10.80;99.90;;;;;;5054129;28;20187;-70
2023/05/18 11:01:36;;;;;;;3.47;1.80;;;10.70;99.90;;;;;;5053867;28;20191;-71
2023/05/18 11:04:07;;;;;;;2.73;1.80;;;10.60;99.90;;;;;;5053556;28;20185;-70
2023/05/18 11:06:34;;;;;;;3.60;1.70;;;10.50;99.90;;;;;;5052380;28;20258;-71
2023/05/18 11:09:02;;;;;;;5.33;1.73;;;10.40;99.90;;;;;;5053842;28;20185;-72
2023/05/18 11:11:49;;;;;;;2.63;1.90;;;10.40;99.90;;;;;;5052131;28;20182;-71
2023/05/18 11:14:29;;;;;;;6.07;2.07;;;10.30;99.90;;;;;;5053670;28;20214;-70
2023/05/18 11:17:17;;;;;;;7.50;2.07;;;10.30;99.90;;;;;;5064841;28;20170;-71
2023/05/18 11:20:08;;;;;;;3.07;2.00;;;10.30;99.90;;;;;;5073484;28;20188;-71
2023/05/18 11:23:06;;;;;;;5.30;2.60;;;10.30;99.90;;;;;;5073336;28;20170;-70
2023/05/18 11:25:34;;;;;;;4.57;2.40;;;10.20;99.90;;;;;;5073624;28;20173;-73
2023/05/18 11:28:06;;;;;;;2.80;2.10;;;10.10;99.90;;;;;;5071817;28;20211;-71
2023/05/18 11:30:35;;;;;;;6.67;2.47;;;10.10;99.90;;;;;;5073399;28;20200;-67
2023/05/18 11:33:09;;;;;;;5.37;2.43;;;10.00;99.90;;;;;;5071754;28;20187;-71
2023/05/18 11:36:13;;;;;;;6.00;2.70;;;10.00;99.90;;;;;;5073391;28;20229;-70
2023/05/18 11:39:06;;;;;;;4.10;2.93;;;9.90;99.90;;;;;;5066373;28;20602;-73
2023/05/18 11:41:35;;;;;;;4.83;2.70;;;9.80;99.90;;;;;;5072915;28;20177;-67
2023/05/18 11:44:08;;;;;;;4.97;3.00;;;9.80;99.90;;;;;;5073095;28;20177;-70
2023/05/18 11:47:00;;;;;;;5.80;3.10;;;9.80;99.90;;;;;;5072850;28;20178;-68
2023/05/18 11:49:29;;;;;;;3.80;2.77;;;9.80;99.90;;;;;;5071889;28;20186;-72
2023/05/18 11:52:00;;;;;;;6.93;3.00;;;9.80;99.90;;;;;;5071665;28;20575;-68
2023/05/18 11:54:28;;;;;;;4.40;3.27;;;9.70;99.90;;;;;;5073269;28;20674;-72
2023/05/18 11:56:58;;;;;;;4.23;2.90;;;9.70;99.90;;;;;;5072999;28;20626;-70
2023/05/18 11:59:32;;;;;;;6.43;3.83;;;9.60;99.90;;;;;;5073320;28;20185;-70
2023/05/18 12:02:01;;;;;;;6.83;3.17;;;9.60;99.90;;;;;;5072803;28;20187;-69
2023/05/18 12:04:30;;;;;;;7.67;3.77;;;9.50;99.90;;;;;;5072950;28;20189;-67
2023/05/18 12:06:58;;;;;;;6.83;3.13;;;9.50;99.90;;;;;;5072910;28;20200;-71
2023/05/18 12:09:26;;;;;;;6.87;3.00;;;9.50;99.90;;;;;;5072843;28;20186;-71
2023/05/18 12:11:55;;;;;;;5.60;3.40;;;9.40;99.90;;;;;;5072673;28;20660;-70
2023/05/18 12:14:23;;;;;;;6.47;2.90;;;9.40;99.90;;;;;;5072460;28;20192;-68
2023/05/18 12:16:51;;;;;;;5.40;2.80;;;9.40;99.90;;;;;;5072098;28;20196;-72
2023/05/18 12:19:18;;;;;;;4.43;2.80;;;9.40;99.90;;;;;;5072682;28;20181;-69
2023/05/18 12:21:46;;;;;;;5.27;2.73;;;9.40;99.90;;;;;;5071985;28;20219;-70
2023/05/18 12:24:13;;;;;;;4.40;2.30;;;9.30;99.90;;;;;;5072539;28;20252;-73
2023/05/18 12:26:41;;;;;;;4.13;2.60;;;9.30;99.90;;;;;;5072758;28;20642;-71
2023/05/18 12:29:10;;;;;;;4.23;2.63;;;9.20;99.90;;;;;;5072397;28;20259;-72
2023/05/18 12:31:41;;;;;;;3.67;2.90;;;9.20;99.90;;;;;;5071857;28;20253;-72
2023/05/18 12:34:10;;;;;;;5.37;2.50;;;9.10;99.90;;;;;;5072435;28;20272;-71
2023/05/18 12:37:01;;;;;;;4.07;2.50;;;9.20;99.90;;;;;;5071875;28;20236;-70
2023/05/18 12:39:32;;;;;;;4.07;2.23;;;9.30;99.90;;;;;;5071901;28;20288;-70
2023/05/18 12:42:19;;;;;;;4.03;2.10;;;9.20;99.90;;;;;;5072059;28;20663;-70
2023/05/18 12:44:48;;;;;;;4.33;2.03;;;9.20;99.90;;;;;;5072137;28;20697;-69
2023/05/18 12:47:16;;;;;;;3.37;2.20;;;9.30;99.90;;;;;;5073346;28;20187;-70
2023/05/18 12:49:49;;;;;;;1.97;1.53;;;9.30;99.90;;;;;;5076896;28;20190;-69
2023/05/18 12:52:16;;;;;;;1.93;1.30;;;9.40;99.90;;;;;;5075782;28;20235;-71
2023/05/18 12:54:58;;;;;;;2.90;1.20;;;9.80;99.90;;;;;;5075076;28;20214;-72
2023/05/18 12:57:29;;;;;;;1.53;1.03;;;10.10;99.90;;;;;;5074897;28;20663;-70
2023/05/18 12:59:57;;;;;;;2.20;1.27;;;10.30;99.90;;;;;;5076522;28;20180;-70
2023/05/18 13:02:32;;;;;;;3.53;1.20;;;10.70;99.90;;;;;;5075714;28;20176;-70
2023/05/18 13:05:22;;;;;;;1.00;0.90;;;10.90;99.90;;;;;;5075796;28;20230;-70